Terminal Aerodrome Forecast
Issued by NWS

Home | Current Version | Previous Version | Graphics & Text | Print | Product List | Glossary On
Versions: 1 2 3 4 5 6 7 8 9 10 11 12 13
000
FTUS43 KFGF 191130
TAFBJI
TAF
KBJI 191130Z 1912/2012 22004KT P6SM SCT250
     FM191600 19009KT P6SM FEW250
     FM191800 20014KT P6SM FEW250
     FM200000 18008KT P6SM SKC=

USA.gov is the U.S. government's official web portal to all federal, state and local government web resources and services.